Brooke — WDB2356 — position and weather

sailwx.info

Track history (hours):
 
Tides and Currents Weather Stations Pressure Air Temp Water Temp Dewpoint Dewpoint Depression Visibility Wind Speed Wind Dir Waves Ship Positions

Brooke

Owner: MARTIN OPERATING PARTNERSHIP LP, VIDOR, TX. More information available from US FCC via Universal Licensing System and Coast Guard Vessel Documentation Center.

Last reported at 2017-Sep-20 11:05 UTC. Time now 2017-Sep-22 22:26 UTC.
Position N 29°37' W 090°21'.

Length 20 m.

Type: Towing. MMSI: 366875030.

Date/timePositionNaut miles runAvg speedWind from/ knotsBaromVisibWave heightAir tempDewpointWater temp
2017-Sep-20 11:05N 29°37' W 090°21'1 4.9
2017-Sep-20 10:58N 29°37' W 090°21'3 4.9
2017-Sep-20 10:25N 29°35' W 090°23'2 4.2
2017-Sep-20 09:58N 29°33' W 090°24'4 4.8
2017-Sep-20 09:10N 29°34' W 090°28'1 3.9
2017-Sep-20 09:00N 29°34' W 090°29'2 4.4
2017-Sep-20 08:30N 29°34' W 090°32'2 4.5
2017-Sep-20 08:00N 29°34' W 090°34'2 4.3
2017-Sep-20 07:30N 29°35' W 090°37'2 4.5
2017-Sep-20 07:00N 29°36' W 090°39'2 4.4
2017-Sep-20 06:30N 29°36' W 090°41'1 2.9
2017-Sep-20 06:00N 29°36' W 090°43'2 3.9
2017-Sep-20 05:30N 29°34' W 090°44'1 1.8
2017-Sep-20 05:00N 29°34' W 090°45'2 3.2
2017-Sep-20 04:30N 29°32' W 090°46'2 4.9
2017-Sep-20 04:00N 29°32' W 090°48'4 5.2
2017-Sep-20 03:16N 29°32' W 090°53'5 5.0
2017-Sep-20 02:12N 29°35' W 090°58'55 3.9
2017-Sep-19 12:08N 29°50' W 091°59'1 3.1
2017-Sep-19 11:56N 29°50' W 091°60'2 4.1
2017-Sep-19 11:30N 29°49' W 092°02'2 4.6
2017-Sep-19 11:00N 29°48' W 092°04'2 4.9
2017-Sep-19 10:30N 29°48' W 092°07'2 4.8
2017-Sep-19 10:00N 29°47' W 092°09'2 4.0
2017-Sep-19 09:30N 29°47' W 092°12'2 4.4
2017-Sep-19 09:00N 29°48' W 092°14'3 5.1
2017-Sep-19 08:30N 29°49' W 092°17'3 4.5
2017-Sep-19 07:57N 29°50' W 092°19'37 4.3
2017-Sep-18 23:18N 29°56' W 093°02'1 4.2
2017-Sep-18 22:59N 29°56' W 093°03'2 3.9
2017-Sep-18 22:30N 29°56' W 093°05'2 4.1
2017-Sep-18 22:00N 29°56' W 093°08'2 3.9
2017-Sep-18 21:30N 29°56' W 093°10'2 3.6
2017-Sep-18 21:00N 29°58' W 093°11'2 4.2
2017-Sep-18 20:30N 29°59' W 093°13'2 3.8
2017-Sep-18 20:00N 30°01' W 093°14'2 3.8
2017-Sep-18 19:30N 30°02' W 093°15'2 3.9
2017-Sep-18 19:00N 30°04' W 093°16'2 3.8
2017-Sep-18 18:30N 30°05' W 093°18'2 3.0
2017-Sep-18 18:00N 30°06' W 093°20'1 1.4
2017-Sep-18 17:30N 30°06' W 093°20'1 2.4
2017-Sep-18 17:00N 30°08' W 093°20'1 1.8
2017-Sep-18 16:30N 30°08' W 093°19'0 0.1
2017-Sep-18 16:00N 30°08' W 093°19'0 0.0
2017-Sep-18 15:30N 30°08' W 093°19'0 0.0
2017-Sep-18 15:00N 30°08' W 093°19'0 0.0
2017-Sep-18 14:30N 30°08' W 093°19'0 0.0
2017-Sep-18 14:00N 30°08' W 093°19'0 0.0
2017-Sep-18 13:30N 30°08' W 093°19'0 0.0
2017-Sep-18 13:00N 30°08' W 093°19'0 0.0
2017-Sep-18 12:30N 30°08' W 093°19'0 0.0
2017-Sep-18 12:00N 30°08' W 093°19'0 0.0
2017-Sep-18 11:30N 30°08' W 093°19'0 0.0
2017-Sep-18 11:00N 30°08' W 093°19'0 0.0
2017-Sep-18 10:30N 30°08' W 093°19'0 0.0
2017-Sep-18 10:00N 30°08' W 093°19'0 0.0
2017-Sep-18 09:30N 30°08' W 093°19'0 0.0
2017-Sep-18 09:00N 30°08' W 093°19'0 0.0
2017-Sep-18 08:30N 30°08' W 093°19'0 0.0
2017-Sep-18 08:00N 30°08' W 093°19'0 0.0
2017-Sep-18 07:30N 30°08' W 093°19'0 0.0
2017-Sep-18 07:00N 30°08' W 093°19'0 0.0
2017-Sep-18 06:30N 30°08' W 093°19'0 0.0
2017-Sep-18 06:00N 30°08' W 093°19'0 0.0
2017-Sep-18 05:30N 30°08' W 093°19'0 0.0
2017-Sep-18 05:00N 30°08' W 093°19'0 0.0
2017-Sep-18 04:30N 30°08' W 093°19'0 0.0
2017-Sep-18 04:00N 30°08' W 093°19'0 0.0
2017-Sep-18 03:31N 30°08' W 093°19'0 0.5
2017-Sep-18 03:00N 30°08' W 093°19'0 0.0
2017-Sep-18 02:30N 30°08' W 093°19'0 0.0
2017-Sep-18 02:00N 30°08' W 093°19'0 0.0
2017-Sep-18 01:30N 30°08' W 093°19'0 0.6
2017-Sep-18 01:00N 30°08' W 093°20'2 4.6
2017-Sep-18 00:30N 30°06' W 093°19'1 1.9
2017-Sep-18 00:00N 30°06' W 093°18'0 0.0
2017-Sep-17 23:30N 30°06' W 093°18'0 0.0
2017-Sep-17 23:00N 30°06' W 093°18'0 0.0
2017-Sep-17 22:30N 30°06' W 093°18'0 0.0
2017-Sep-17 22:00N 30°06' W 093°18'0 0.0
2017-Sep-17 21:30N 30°06' W 093°18'0 0.0
2017-Sep-17 21:00N 30°06' W 093°18'0 0.0
2017-Sep-17 20:30N 30°06' W 093°18'0 0.0
2017-Sep-17 20:00N 30°06' W 093°19'0 0.0
2017-Sep-17 19:30N 30°06' W 093°19'0 0.0
2017-Sep-17 19:00N 30°06' W 093°19'0 0.0
2017-Sep-17 18:30N 30°06' W 093°19'0 0.0
2017-Sep-17 18:00N 30°06' W 093°19'0 0.0
2017-Sep-17 17:30N 30°06' W 093°19'0 0.0
2017-Sep-17 17:00N 30°06' W 093°19'0 0.0
2017-Sep-17 16:30N 30°06' W 093°19'0 0.0
2017-Sep-17 16:00N 30°06' W 093°19'0 0.0
2017-Sep-17 15:30N 30°06' W 093°19'0 0.0
2017-Sep-17 15:00N 30°06' W 093°19'0 0.0
2017-Sep-17 14:30N 30°06' W 093°19'0 0.0
2017-Sep-17 14:00N 30°06' W 093°19'0 0.0
2017-Sep-17 13:30N 30°06' W 093°19'0 0.0
2017-Sep-17 13:00N 30°06' W 093°19'0 0.0
2017-Sep-17 12:30N 30°06' W 093°19'0 0.0
2017-Sep-17 12:00N 30°06' W 093°19'0 0.1
2017-Sep-17 11:30N 30°06' W 093°18'0 0.0
2017-Sep-17 11:00N 30°06' W 093°19'0 0.0
2017-Sep-17 10:30N 30°06' W 093°18'0 0.0
2017-Sep-17 10:00N 30°06' W 093°18'0 0.0
2017-Sep-17 09:30N 30°06' W 093°18'0 0.0
2017-Sep-17 09:00N 30°06' W 093°19'0 0.0
2017-Sep-17 08:30N 30°06' W 093°19'0 0.0
2017-Sep-17 08:00N 30°06' W 093°19'0 0.0
2017-Sep-17 07:30N 30°06' W 093°19'0 0.0
2017-Sep-17 07:00N 30°06' W 093°19'0 0.0
2017-Sep-17 06:30N 30°06' W 093°19'0 0.0
2017-Sep-17 06:00N 30°06' W 093°19'0 0.0
2017-Sep-17 05:30N 30°06' W 093°19'0 0.0
2017-Sep-17 04:55N 30°06' W 093°19'0 0.0
2017-Sep-17 04:30N 30°06' W 093°19'0 0.0
2017-Sep-17 04:00N 30°06' W 093°19'0 0.0
2017-Sep-17 03:30N 30°06' W 093°19'0 0.0
2017-Sep-17 03:00N 30°06' W 093°19'0 0.0
2017-Sep-17 02:30N 30°06' W 093°19'0 0.0
2017-Sep-17 02:00N 30°06' W 093°19'0 0.0
2017-Sep-17 01:30N 30°06' W 093°19'0 0.0
2017-Sep-17 01:00N 30°06' W 093°19'0 0.0
2017-Sep-17 00:30N 30°06' W 093°19'0 0.0
2017-Sep-17 00:00N 30°06' W 093°19'0 0.0
2017-Sep-16 23:30N 30°06' W 093°19'0 0.0
2017-Sep-16 23:00N 30°06' W 093°19'0 0.0
2017-Sep-16 22:30N 30°06' W 093°19'1 1.4
2017-Sep-16 22:00N 30°06' W 093°19'3 5.0
2017-Sep-16 21:30N 30°04' W 093°21'2 3.4
2017-Sep-16 21:00N 30°04' W 093°23'3 5.3
2017-Sep-16 20:30N 30°04' W 093°26'3 5.5
2017-Sep-16 20:00N 30°04' W 093°29'3 5.5
2017-Sep-16 19:30N 30°04' W 093°32'26 0.6
2017-Sep-15 03:08N 30°02' W 094°02'0 0.0
2017-Sep-14 14:02N 30°02' W 094°02'0 0.0
2017-Sep-14 13:51N 30°02' W 094°02'  
Track history (hours):
 
Tides and Currents Weather Stations Pressure Air Temp Water Temp Dewpoint Dewpoint Depression Visibility Wind Speed Wind Dir Waves Ship Positions

Brooke

Owner: MARTIN OPERATING PARTNERSHIP LP, VIDOR, TX. More information available from US FCC via Universal Licensing System and Coast Guard Vessel Documentation Center.

Last reported at 2017-Sep-20 11:05 UTC. Time now 2017-Sep-22 22:26 UTC.
Position N 29°37' W 090°21'.

Length 20 m.

Type: Towing. MMSI: 366875030.

Date/timePositionNaut miles runAvg speedWind from/ knotsBaromVisibWave heightAir tempDewpointWater temp
2017-Sep-20 11:05N 29°37' W 090°21'1 4.9
2017-Sep-20 10:58N 29°37' W 090°21'3 4.9
2017-Sep-20 10:25N 29°35' W 090°23'2 4.2
2017-Sep-20 09:58N 29°33' W 090°24'4 4.8
2017-Sep-20 09:10N 29°34' W 090°28'1 3.9
2017-Sep-20 09:00N 29°34' W 090°29'2 4.4
2017-Sep-20 08:30N 29°34' W 090°32'2 4.5
2017-Sep-20 08:00N 29°34' W 090°34'2 4.3
2017-Sep-20 07:30N 29°35' W 090°37'2 4.5
2017-Sep-20 07:00N 29°36' W 090°39'2 4.4
2017-Sep-20 06:30N 29°36' W 090°41'1 2.9
2017-Sep-20 06:00N 29°36' W 090°43'2 3.9
2017-Sep-20 05:30N 29°34' W 090°44'1 1.8
2017-Sep-20 05:00N 29°34' W 090°45'2 3.2
2017-Sep-20 04:30N 29°32' W 090°46'2 4.9
2017-Sep-20 04:00N 29°32' W 090°48'4 5.2
2017-Sep-20 03:16N 29°32' W 090°53'5 5.0
2017-Sep-20 02:12N 29°35' W 090°58'55 3.9
2017-Sep-19 12:08N 29°50' W 091°59'1 3.1
2017-Sep-19 11:56N 29°50' W 091°60'2 4.1
2017-Sep-19 11:30N 29°49' W 092°02'2 4.6
2017-Sep-19 11:00N 29°48' W 092°04'2 4.9
2017-Sep-19 10:30N 29°48' W 092°07'2 4.8
2017-Sep-19 10:00N 29°47' W 092°09'2 4.0
2017-Sep-19 09:30N 29°47' W 092°12'2 4.4
2017-Sep-19 09:00N 29°48' W 092°14'3 5.1
2017-Sep-19 08:30N 29°49' W 092°17'3 4.5
2017-Sep-19 07:57N 29°50' W 092°19'37 4.3
2017-Sep-18 23:18N 29°56' W 093°02'1 4.2
2017-Sep-18 22:59N 29°56' W 093°03'2 3.9
2017-Sep-18 22:30N 29°56' W 093°05'2 4.1
2017-Sep-18 22:00N 29°56' W 093°08'2 3.9
2017-Sep-18 21:30N 29°56' W 093°10'2 3.6
2017-Sep-18 21:00N 29°58' W 093°11'2 4.2
2017-Sep-18 20:30N 29°59' W 093°13'2 3.8
2017-Sep-18 20:00N 30°01' W 093°14'2 3.8
2017-Sep-18 19:30N 30°02' W 093°15'2 3.9
2017-Sep-18 19:00N 30°04' W 093°16'2 3.8
2017-Sep-18 18:30N 30°05' W 093°18'2 3.0
2017-Sep-18 18:00N 30°06' W 093°20'1 1.4
2017-Sep-18 17:30N 30°06' W 093°20'1 2.4
2017-Sep-18 17:00N 30°08' W 093°20'1 1.8
2017-Sep-18 16:30N 30°08' W 093°19'0 0.1
2017-Sep-18 16:00N 30°08' W 093°19'0 0.0
2017-Sep-18 15:30N 30°08' W 093°19'0 0.0
2017-Sep-18 15:00N 30°08' W 093°19'0 0.0
2017-Sep-18 14:30N 30°08' W 093°19'0 0.0
2017-Sep-18 14:00N 30°08' W 093°19'0 0.0
2017-Sep-18 13:30N 30°08' W 093°19'0 0.0
2017-Sep-18 13:00N 30°08' W 093°19'0 0.0
2017-Sep-18 12:30N 30°08' W 093°19'0 0.0
2017-Sep-18 12:00N 30°08' W 093°19'0 0.0
2017-Sep-18 11:30N 30°08' W 093°19'0 0.0
2017-Sep-18 11:00N 30°08' W 093°19'0 0.0
2017-Sep-18 10:30N 30°08' W 093°19'0 0.0
2017-Sep-18 10:00N 30°08' W 093°19'0 0.0
2017-Sep-18 09:30N 30°08' W 093°19'0 0.0
2017-Sep-18 09:00N 30°08' W 093°19'0 0.0
2017-Sep-18 08:30N 30°08' W 093°19'0 0.0
2017-Sep-18 08:00N 30°08' W 093°19'0 0.0
2017-Sep-18 07:30N 30°08' W 093°19'0 0.0
2017-Sep-18 07:00N 30°08' W 093°19'0 0.0
2017-Sep-18 06:30N 30°08' W 093°19'0 0.0
2017-Sep-18 06:00N 30°08' W 093°19'0 0.0
2017-Sep-18 05:30N 30°08' W 093°19'0 0.0
2017-Sep-18 05:00N 30°08' W 093°19'0 0.0
2017-Sep-18 04:30N 30°08' W 093°19'0 0.0
2017-Sep-18 04:00N 30°08' W 093°19'0 0.0
2017-Sep-18 03:31N 30°08' W 093°19'0 0.5
2017-Sep-18 03:00N 30°08' W 093°19'0 0.0
2017-Sep-18 02:30N 30°08' W 093°19'0 0.0
2017-Sep-18 02:00N 30°08' W 093°19'0 0.0
2017-Sep-18 01:30N 30°08' W 093°19'0 0.6
2017-Sep-18 01:00N 30°08' W 093°20'2 4.6
2017-Sep-18 00:30N 30°06' W 093°19'1 1.9
2017-Sep-18 00:00N 30°06' W 093°18'0 0.0
2017-Sep-17 23:30N 30°06' W 093°18'0 0.0
2017-Sep-17 23:00N 30°06' W 093°18'0 0.0
2017-Sep-17 22:30N 30°06' W 093°18'0 0.0
2017-Sep-17 22:00N 30°06' W 093°18'0 0.0
2017-Sep-17 21:30N 30°06' W 093°18'0 0.0
2017-Sep-17 21:00N 30°06' W 093°18'0 0.0
2017-Sep-17 20:30N 30°06' W 093°18'0 0.0
2017-Sep-17 20:00N 30°06' W 093°19'0 0.0
2017-Sep-17 19:30N 30°06' W 093°19'0 0.0
2017-Sep-17 19:00N 30°06' W 093°19'0 0.0
2017-Sep-17 18:30N 30°06' W 093°19'0 0.0
2017-Sep-17 18:00N 30°06' W 093°19'0 0.0
2017-Sep-17 17:30N 30°06' W 093°19'0 0.0
2017-Sep-17 17:00N 30°06' W 093°19'0 0.0
2017-Sep-17 16:30N 30°06' W 093°19'0 0.0
2017-Sep-17 16:00N 30°06' W 093°19'0 0.0
2017-Sep-17 15:30N 30°06' W 093°19'0 0.0
2017-Sep-17 15:00N 30°06' W 093°19'0 0.0
2017-Sep-17 14:30N 30°06' W 093°19'0 0.0
2017-Sep-17 14:00N 30°06' W 093°19'0 0.0
2017-Sep-17 13:30N 30°06' W 093°19'0 0.0
2017-Sep-17 13:00N 30°06' W 093°19'0 0.0
2017-Sep-17 12:30N 30°06' W 093°19'0 0.0
2017-Sep-17 12:00N 30°06' W 093°19'0 0.1
2017-Sep-17 11:30N 30°06' W 093°18'0 0.0
2017-Sep-17 11:00N 30°06' W 093°19'0 0.0
2017-Sep-17 10:30N 30°06' W 093°18'0 0.0
2017-Sep-17 10:00N 30°06' W 093°18'0 0.0
2017-Sep-17 09:30N 30°06' W 093°18'0 0.0
2017-Sep-17 09:00N 30°06' W 093°19'0 0.0
2017-Sep-17 08:30N 30°06' W 093°19'0 0.0
2017-Sep-17 08:00N 30°06' W 093°19'0 0.0
2017-Sep-17 07:30N 30°06' W 093°19'0 0.0
2017-Sep-17 07:00N 30°06' W 093°19'0 0.0
2017-Sep-17 06:30N 30°06' W 093°19'0 0.0
2017-Sep-17 06:00N 30°06' W 093°19'0 0.0
2017-Sep-17 05:30N 30°06' W 093°19'0 0.0
2017-Sep-17 04:55N 30°06' W 093°19'0 0.0
2017-Sep-17 04:30N 30°06' W 093°19'0 0.0
2017-Sep-17 04:00N 30°06' W 093°19'0 0.0
2017-Sep-17 03:30N 30°06' W 093°19'0 0.0
2017-Sep-17 03:00N 30°06' W 093°19'0 0.0
2017-Sep-17 02:30N 30°06' W 093°19'0 0.0
2017-Sep-17 02:00N 30°06' W 093°19'0 0.0
2017-Sep-17 01:30N 30°06' W 093°19'0 0.0
2017-Sep-17 01:00N 30°06' W 093°19'0 0.0
2017-Sep-17 00:30N 30°06' W 093°19'0 0.0
2017-Sep-17 00:00N 30°06' W 093°19'0 0.0
2017-Sep-16 23:30N 30°06' W 093°19'0 0.0
2017-Sep-16 23:00N 30°06' W 093°19'0 0.0
2017-Sep-16 22:30N 30°06' W 093°19'1 1.4
2017-Sep-16 22:00N 30°06' W 093°19'3 5.0
2017-Sep-16 21:30N 30°04' W 093°21'2 3.4
2017-Sep-16 21:00N 30°04' W 093°23'3 5.3
2017-Sep-16 20:30N 30°04' W 093°26'3 5.5
2017-Sep-16 20:00N 30°04' W 093°29'3 5.5
2017-Sep-16 19:30N 30°04' W 093°32'26 0.6
2017-Sep-15 03:08N 30°02' W 094°02'0 0.0
2017-Sep-14 14:02N 30°02' W 094°02'0 0.0
2017-Sep-14 13:51N 30°02' W 094°02'  

Dump ship's entire track history